Time;durP1;ratioP1;P1;durP2;ratioP2;P2;SDS_P1;SDS_P2;PMS_P1;PMS_P2;Temp;Humidity;BMP_temperature;BMP_pressure;BME280_temperature;BME280_humidity;BME280_pressure;Samples;Min_cycle;Max_cycle;Signal;HPM_P1;HPM_P2
2024/04/16 05:19:22;;;;;;;;;;;;;;;;;;3462149;24;19996;-50
2024/04/16 05:21:48;;;;;;;;;;;;;;;;;;5344312;26;19969;-50
2024/04/16 05:24:13;;;;;;;;;;;;;;;;;;5373803;26;19942;-48
2024/04/16 05:26:39;;;;;;;;;;;;;;;;;;5345534;26;19934;-47
2024/04/16 05:29:05;;;;;;;;;;;;;;;;;;5345474;26;19958;-48
2024/04/16 05:31:31;;;;;;;;;;;;;;;;;;5377765;26;20359;-49
2024/04/16 05:33:57;;;;;;;;;;;;;;;;;;5350943;26;20363;-47
2024/04/16 05:36:23;;;;;;;;;;;;;;;;;;5365230;26;20272;-50
2024/04/16 05:38:49;;;;;;;;;;;;;;;;;;5345094;26;19930;-47
2024/04/16 05:41:15;;;;;;;;;;;;;;;;;;5370811;26;20390;-49
2024/04/16 05:43:41;;;;;;;;;;;;;;;;;;5380131;26;19999;-50
2024/04/16 05:46:07;;;;;;;;;;;;;;;;;;5380256;26;19945;-49
2024/04/16 05:48:33;;;;;;;;;;;;;;;;;;5380114;26;20331;-51
2024/04/16 05:50:59;;;;;;;;;;;;;;;;;;5373364;26;19930;-50
2024/04/16 05:53:25;;;;;;;;;;;;;;;;;;5357858;26;19986;-50
2024/04/16 05:55:51;;;;;;;;;;;;;;;;;;5348072;26;20251;-45
2024/04/16 05:58:17;;;;;;;;;;;;;;;;;;5344941;26;19999;-47
2024/04/16 06:00:43;;;;;;;;;;;;;;;;;;5344524;26;20378;-46
2024/04/16 06:03:09;;;;;;;;;;;;;;;;;;5359217;26;19930;-47
2024/04/16 06:05:35;;;;;;;;;;;;;;;;;;5365190;26;20041;-48
2024/04/16 06:08:01;;;;;;;;;;;;;;;;;;5345379;26;19981;-45
2024/04/16 06:10:27;;;;;;;;;;;;;;;;;;5347521;26;20264;-49
2024/04/16 06:12:53;;;;;;;;;;;;;;;;;;5379376;26;19936;-45
2024/04/16 06:15:19;;;;;;;;;;;;;;;;;;5379969;26;20391;-44
2024/04/16 06:17:45;;;;;;;;;;;;;;;;;;5379806;26;19937;-45
2024/04/16 06:20:10;;;;;;;;;;;;;;;;;;5379816;26;19941;-46
2024/04/16 06:22:36;;;;;;;;;;;;;;;;;;5379757;26;19934;-49
2024/04/16 06:25:02;;;;;;;;;;;;;;;;;;5357635;26;19941;-45
2024/04/16 06:27:28;;;;;;;;;;;;;;;;;;5356234;26;19930;-45
2024/04/16 06:29:54;;;;;;;;;;;;;;;;;;5365998;26;20319;-46
2024/04/16 06:32:20;;;;;;;;;;;;;;;;;;5356952;26;19936;-45
2024/04/16 06:34:46;;;;;;;;;;;;;;;;;;5364109;26;20374;-45
2024/04/16 06:37:12;;;;;;;;;;;;;;;;;;5360860;26;19933;-48
2024/04/16 06:39:39;;;;;;;;;;;;;;;;;;5374209;26;20002;-45
2024/04/16 06:42:05;;;;;;;;;;;;;;;;;;5353829;26;19958;-48
2024/04/16 06:44:31;;;;;;;;;;;;;;;;;;5356870;26;19937;-48
2024/04/16 06:46:57;;;;;;;;;;;;;;;;;;5365773;26;19981;-44
2024/04/16 06:49:23;;;;;;;;;;;;;;;;;;5371696;26;19999;-46
2024/04/16 06:51:48;;;;;;;;;;;;;;;;;;5378096;26;20003;-45
2024/04/16 06:54:14;;;;;;;;;;;;;;;;;;5356881;26;19934;-46
2024/04/16 06:56:40;;;;;;;;;;;;;;;;;;5365180;26;20344;-45
2024/04/16 06:59:06;;;;;;;;;;;;;;;;;;5350999;26;19981;-48
2024/04/16 07:01:32;;;;;;;;;;;;;;;;;;5364496;26;19929;-47
2024/04/16 07:03:59;;;;;;;;;;;;;;;;;;5376235;26;19930;-49
2024/04/16 07:06:25;;;;;;;;;;;;;;;;;;5372658;26;21049;-48
2024/04/16 07:08:51;;;;;;;;;;;;;;;;;;5344138;26;19937;-46
2024/04/16 07:11:17;;;;;;;;;;;;;;;;;;5354698;26;19936;-46
2024/04/16 07:13:45;;;;;;;;;;;;;;;;;;5376271;26;19940;-44
2024/04/16 07:16:10;;;;;;;;;;;;;;;;;;5378903;26;19929;-45
2024/04/16 07:18:36;;;;;;;;;;;;;;;;;;5379020;26;19936;-45
2024/04/16 07:21:02;;;;;;;;;;;;;;;;;;5379218;26;20473;-48
2024/04/16 07:23:28;;;;;;;;;;;;;;;;;;5375926;26;20002;-46
2024/04/16 07:25:54;;;;;;;;;;;;;;;;;;5343459;26;19937;-44
2024/04/16 07:28:20;;;;;;;;;;;;;;;;;;5343786;26;19937;-49
2024/04/16 07:30:46;;;;;;;;;;;;;;;;;;5345599;26;20004;-47
2024/04/16 07:33:13;;;;;;;;;;;;;;;;;;5343503;26;19937;-44
2024/04/16 07:35:38;;;;;;;;;;;;;;;;;;5343509;26;19930;-45
2024/04/16 07:38:04;;;;;;;;;;;;;;;;;;5344964;26;20351;-45
2024/04/16 07:40:31;;;;;;;;;;;;;;;;;;5349329;26;19953;-47
2024/04/16 07:42:57;;;;;;;;;;;;;;;;;;5378392;26;19930;-45
2024/04/16 07:45:23;;;;;;;;;;;;;;;;;;5378026;26;20341;-48
2024/04/16 07:47:49;;;;;;;;;;;;;;;;;;5364117;26;19930;-47
2024/04/16 07:50:15;;;;;;;;;;;;;;;;;;5346176;26;19930;-45
2024/04/16 07:52:41;;;;;;;;;;;;;;;;;;5346606;26;19930;-45
2024/04/16 07:55:06;;;;;;;;;;;;;;;;;;5348551;26;19930;-47
2024/04/16 07:57:32;;;;;;;;;;;;;;;;;;5346542;26;19942;-45
2024/04/16 07:59:58;;;;;;;;;;;;;;;;;;5346228;26;19934;-46
2024/04/16 08:02:26;;;;;;;;;;;;;;;;;;5346729;26;19930;-46
2024/04/16 08:04:51;;;;;;;;;;;;;;;;;;5353877;26;19930;-46
2024/04/16 08:07:17;;;;;;;;;;;;;;;;;;5360298;26;20271;-44
2024/04/16 08:09:43;;;;;;;;;;;;;;;;;;5381986;26;19936;-45
2024/04/16 08:12:09;;;;;;;;;;;;;;;;;;5347622;26;19981;-45
2024/04/16 08:14:35;;;;;;;;;;;;;;;;;;5370728;26;20282;-45
2024/04/16 08:17:01;;;;;;;;;;;;;;;;;;5380678;26;19999;-46
2024/04/16 08:19:27;;;;;;;;;;;;;;;;;;5380403;26;20266;-44
2024/04/16 08:21:53;;;;;;;;;;;;;;;;;;5380598;26;19936;-46
2024/04/16 08:24:19;;;;;;;;;;;;;;;;;;5380712;26;20451;-47
2024/04/16 08:26:44;;;;;;;;;;;;;;;;;;5380348;26;19983;-44
2024/04/16 08:29:10;;;;;;;;;;;;;;;;;;5380323;26;20279;-45
2024/04/16 08:31:36;;;;;;;;;;;;;;;;;;5380610;26;19929;-46
2024/04/16 08:34:02;;;;;;;;;;;;;;;;;;5379970;26;20090;-48
2024/04/16 08:36:30;;;;;;;;;;;;;;;;;;5380202;26;19930;-45
2024/04/16 08:38:55;;;;;;;;;;;;;;;;;;5380043;26;19942;-44
2024/04/16 08:41:21;;;;;;;;;;;;;;;;;;5380055;26;20271;-44
2024/04/16 08:43:47;;;;;;;;;;;;;;;;;;5380060;26;19980;-49
2024/04/16 08:46:13;;;;;;;;;;;;;;;;;;5379968;26;19934;-46
2024/04/16 08:48:39;;;;;;;;;;;;;;;;;;5380013;26;19929;-49
2024/04/16 08:51:05;;;;;;;;;;;;;;;;;;5380238;26;20508;-47
2024/04/16 08:53:31;;;;;;;;;;;;;;;;;;5379859;26;19937;-46
2024/04/16 08:55:57;;;;;;;;;;;;;;;;;;5379728;26;19930;-46
2024/04/16 08:58:23;;;;;;;;;;;;;;;;;;5379756;26;19977;-45
2024/04/16 09:00:49;;;;;;;;;;;;;;;;;;5346854;26;20440;-46
2024/04/16 09:03:15;;;;;;;;;;;;;;;;;;5344760;26;19930;-46
2024/04/16 09:05:41;;;;;;;;;;;;;;;;;;5344695;26;20257;-47
2024/04/16 09:08:07;;;;;;;;;;;;;;;;;;5345124;26;20689;-49
2024/04/16 09:10:32;;;;;;;;;;;;;;;;;;5344753;26;19936;-47
2024/04/16 09:12:58;;;;;;;;;;;;;;;;;;5344540;26;20293;-47
2024/04/16 09:15:24;;;;;;;;;;;;;;;;;;5344523;26;19942;-46
2024/04/16 09:17:50;;;;;;;;;;;;;;;;;;5344417;26;20374;-46
2024/04/16 09:20:16;;;;;;;;;;;;;;;;;;5344493;26;19937;-46
2024/04/16 09:22:42;;;;;;;;;;;;;;;;;;5344418;26;19934;-46
2024/04/16 09:25:08;;;;;;;;;;;;;;;;;;5344653;26;19930;-46
2024/04/16 09:27:34;;;;;;;;;;;;;;;;;;5344712;26;19958;-45
2024/04/16 09:30:00;;;;;;;;;;;;;;;;;;5344274;26;19937;-49
2024/04/16 09:32:26;;;;;;;;;;;;;;;;;;5344347;26;19941;-48
2024/04/16 09:34:52;;;;;;;;;;;;;;;;;;5344107;26;19930;-45
2024/04/16 09:37:18;;;;;;;;;;;;;;;;;;5344782;26;19930;-45
2024/04/16 09:39:43;;;;;;;;;;;;;;;;;;5345095;26;19962;-46
2024/04/16 09:42:09;;;;;;;;;;;;;;;;;;5345466;26;19934;-46
2024/04/16 09:44:35;;;;;;;;;;;;;;;;;;5345528;26;20376;-45
2024/04/16 09:47:01;;;;;;;;;;;;;;;;;;5345074;26;19942;-46
2024/04/16 09:49:27;;;;;;;;;;;;;;;;;;5345152;26;19930;-47
2024/04/16 09:51:53;;;;;;;;;;;;;;;;;;6017804;21;19929;-50
2024/04/16 09:54:19;;;;;;;;;;;;;;;;;;5399250;26;19961;-52
2024/04/16 09:56:45;;;;;;;;;;;;;;;;;;5379918;26;19995;-49
2024/04/16 09:59:10;;;;;;;;;;;;;;;;;;5407740;26;20384;-47
2024/04/16 10:01:36;;;;;;;;;;;;;;;;;;5415571;26;19936;-49
2024/04/16 10:04:02;;;;;;;;;;;;;;;;;;5415295;26;20032;-51
2024/04/16 10:06:28;;;;;;;;;;;;;;;;;;5415274;26;19940;-52
2024/04/16 10:08:54;;;;;;;;;;;;;;;;;;5415306;26;19929;-51
2024/04/16 10:11:20;;;;;;;;;;;;;;;;;;5386353;26;19936;-51
2024/04/16 10:13:46;;;;;;;;;;;;;;;;;;5379617;26;20280;-47
2024/04/16 10:16:12;;;;;;;;;;;;;;;;;;5379587;26;19929;-51
2024/04/16 10:18:37;;;;;;;;;;;;;;;;;;5380101;26;19945;-50
2024/04/16 10:21:04;;;;;;;;;;;;;;;;;;5379180;26;19937;-48
2024/04/16 10:23:29;;;;;;;;;;;;;;;;;;5379564;26;19940;-52
2024/04/16 10:25:55;;;;;;;;;;;;;;;;;;5381640;26;19930;-49
2024/04/16 10:28:21;;;;;;;;;;;;;;;;;;5379535;26;19937;-52
2024/04/16 10:30:47;;;;;;;;;;;;;;;;;;5381488;26;19930;-51
2024/04/16 10:33:15;;;;;;;;;;;;;;;;;;5379489;26;20403;-48
2024/04/16 10:35:40;;;;;;;;;;;;;;;;;;5410703;26;19997;-49
2024/04/16 10:38:06;;;;;;;;;;;;;;;;;;5414991;26;19940;-51
2024/04/16 10:40:32;;;;;;;;;;;;;;;;;;5414907;26;19928;-52
2024/04/16 10:42:58;;;;;;;;;;;;;;;;;;5408920;26;20291;-52
2024/04/16 10:45:24;;;;;;;;;;;;;;;;;;5411992;26;19929;-51
2024/04/16 10:47:50;;;;;;;;;;;;;;;;;;5388581;26;20596;-50
2024/04/16 10:50:16;;;;;;;;;;;;;;;;;;5344292;26;19937;-51
2024/04/16 10:52:41;;;;;;;;;;;;;;;;;;5362720;26;19936;-52
2024/04/16 10:55:07;;;;;;;;;;;;;;;;;;5379241;26;19936;-50
2024/04/16 10:57:33;;;;;;;;;;;;;;;;;;5374389;26;20007;-50
2024/04/16 10:59:59;;;;;;;;;;;;;;;;;;5374457;26;19937;-51
2024/04/16 11:02:25;;;;;;;;;;;;;;;;;;5368955;26;20051;-49
2024/04/16 11:04:51;;;;;;;;;;;;;;;;;;5395383;26;19980;-47
2024/04/16 11:07:17;;;;;;;;;;;;;;;;;;5366730;26;19937;-47
2024/04/16 11:09:43;;;;;;;;;;;;;;;;;;5376345;26;19941;-50
2024/04/16 11:12:08;;;;;;;;;;;;;;;;;;5378834;26;19940;-47
2024/04/16 11:14:34;;;;;;;;;;;;;;;;;;5356562;26;19961;-48
2024/04/16 11:17:00;;;;;;;;;;;;;;;;;;5357851;26;19936;-50
2024/04/16 11:19:26;;;;;;;;;;;;;;;;;;5343696;26;19930;-52
2024/04/16 11:21:52;;;;;;;;;;;;;;;;;;5360946;26;19945;-51
2024/04/16 11:24:18;;;;;;;;;;;;;;;;;;5380103;26;19929;-52
2024/04/16 11:26:44;;;;;;;;;;;;;;;;;;5378992;26;20367;-50
2024/04/16 11:29:11;;;;;;;;;;;;;;;;;;5382212;26;19930;-49
2024/04/16 11:31:37;;;;;;;;;;;;;;;;;;5382032;26;20284;-51
2024/04/16 11:34:03;;;;;;;;;;;;;;;;;;5383381;26;19929;-49
2024/04/16 11:36:29;;;;;;;;;;;;;;;;;;5371315;26;19986;-50
2024/04/16 11:38:55;;;;;;;;;;;;;;;;;;5345866;26;20003;-48
2024/04/16 11:41:21;;;;;;;;;;;;;;;;;;5392848;26;19945;-49
2024/04/16 11:43:47;;;;;;;;;;;;;;;;;;5365016;26;19931;-48
2024/04/16 11:46:13;;;;;;;;;;;;;;;;;;5355761;26;19937;-51
2024/04/16 11:48:39;;;;;;;;;;;;;;;;;;5365337;26;19930;-47
2024/04/16 11:51:04;;;;;;;;;;;;;;;;;;5353924;26;19929;-50
2024/04/16 11:53:30;;;;;;;;;;;;;;;;;;5388204;26;20371;-51
2024/04/16 11:55:56;;;;;;;;;;;;;;;;;;5380773;26;20377;-51
2024/04/16 11:58:22;;;;;;;;;;;;;;;;;;5376845;26;19944;-51
2024/04/16 12:00:48;;;;;;;;;;;;;;;;;;5323353;26;20394;-51
2024/04/16 12:03:14;;;;;;;;;;;;;;;;;;5373607;26;19929;-52
2024/04/16 12:05:40;;;;;;;;;;;;;;;;;;5372225;26;19936;-51
2024/04/16 12:08:06;;;;;;;;;;;;;;;;;;5368295;26;19930;-49
2024/04/16 12:10:33;;;;;;;;;;;;;;;;;;5369259;26;19941;-52
2024/04/16 12:12:58;;;;;;;;;;;;;;;;;;5364136;26;20272;-49
2024/04/16 12:15:24;;;;;;;;;;;;;;;;;;5372662;26;19930;-51
2024/04/16 12:17:50;;;;;;;;;;;;;;;;;;5360419;26;19964;-51
2024/04/16 12:20:16;;;;;;;;;;;;;;;;;;5371615;26;20371;-50
2024/04/16 12:22:42;;;;;;;;;;;;;;;;;;5336001;26;19933;-53
2024/04/16 12:25:08;;;;;;;;;;;;;;;;;;5324189;26;20007;-52
2024/04/16 12:27:34;;;;;;;;;;;;;;;;;;5378559;26;19961;-53
2024/04/16 12:30:00;;;;;;;;;;;;;;;;;;5368750;26;19946;-51
2024/04/16 12:32:26;;;;;;;;;;;;;;;;;;5374419;26;20367;-50
2024/04/16 12:34:52;;;;;;;;;;;;;;;;;;5367083;26;20266;-50
2024/04/16 12:37:18;;;;;;;;;;;;;;;;;;5386510;26;19929;-52
2024/04/16 12:39:44;;;;;;;;;;;;;;;;;;5375596;26;19929;-50
2024/04/16 12:42:10;;;;;;;;;;;;;;;;;;5378095;26;19941;-52
2024/04/16 12:44:36;;;;;;;;;;;;;;;;;;5402514;26;19937;-51
2024/04/16 12:47:01;;;;;;;;;;;;;;;;;;5380048;26;19941;-52
2024/04/16 12:49:27;;;;;;;;;;;;;;;;;;5380188;26;19930;-53
2024/04/16 12:51:53;;;;;;;;;;;;;;;;;;5372211;26;19979;-49
2024/04/16 12:54:19;;;;;;;;;;;;;;;;;;5344506;26;19930;-52
2024/04/16 12:56:45;;;;;;;;;;;;;;;;;;5378630;26;19936;-53
2024/04/16 12:59:11;;;;;;;;;;;;;;;;;;5381524;26;20345;-52
2024/04/16 13:01:37;;;;;;;;;;;;;;;;;;5346713;26;19933;-50
2024/04/16 13:04:03;;;;;;;;;;;;;;;;;;5377496;26;20504;-50
2024/04/16 13:06:32;;;;;;;;;;;;;;;;;;5346117;26;19938;-51
2024/04/16 13:08:58;;;;;;;;;;;;;;;;;;5373753;26;20440;-50
2024/04/16 13:11:24;;;;;;;;;;;;;;;;;;5382307;26;19930;-50
2024/04/16 13:13:50;;;;;;;;;;;;;;;;;;5335830;26;19934;-52
2024/04/16 13:16:16;;;;;;;;;;;;;;;;;;5340590;26;19930;-48
2024/04/16 13:18:42;;;;;;;;;;;;;;;;;;5379516;26;20020;-49
2024/04/16 13:21:09;;;;;;;;;;;;;;;;;;5374335;26;19933;-50
2024/04/16 13:23:35;;;;;;;;;;;;;;;;;;5367794;26;20000;-50
2024/04/16 13:26:01;;;;;;;;;;;;;;;;;;5343647;26;20263;-48
2024/04/16 13:28:27;;;;;;;;;;;;;;;;;;5352995;26;19930;-50
2024/04/16 13:30:53;;;;;;;;;;;;;;;;;;5344283;26;19937;-50
2024/04/16 13:33:19;;;;;;;;;;;;;;;;;;5378871;26;20275;-48
2024/04/16 13:35:45;;;;;;;;;;;;;;;;;;5345017;26;19934;-52
2024/04/16 13:38:11;;;;;;;;;;;;;;;;;;5367480;26;19944;-51
2024/04/16 13:40:37;;;;;;;;;;;;;;;;;;5368004;26;19938;-48
2024/04/16 13:43:04;;;;;;;;;;;;;;;;;;5363645;26;19929;-51
2024/04/16 13:45:29;;;;;;;;;;;;;;;;;;5362022;26;19941;-51
2024/04/16 13:47:55;;;;;;;;;;;;;;;;;;5344015;26;20364;-51
2024/04/16 13:50:21;;;;;;;;;;;;;;;;;;5346963;26;19930;-51
2024/04/16 13:52:47;;;;;;;;;;;;;;;;;;5330832;26;20003;-52
2024/04/16 13:55:14;;;;;;;;;;;;;;;;;;5344525;26;19936;-49
2024/04/16 13:57:40;;;;;;;;;;;;;;;;;;5352359;26;19999;-48
2024/04/16 14:00:06;;;;;;;;;;;;;;;;;;5326811;26;19949;-50
2024/04/16 14:02:32;;;;;;;;;;;;;;;;;;5362318;26;19930;-51
2024/04/16 14:04:58;;;;;;;;;;;;;;;;;;5356026;26;19929;-48
2024/04/16 14:07:24;;;;;;;;;;;;;;;;;;5379185;26;20291;-52
2024/04/16 14:09:50;;;;;;;;;;;;;;;;;;5344422;26;19930;-52
2024/04/16 14:12:16;;;;;;;;;;;;;;;;;;5350230;26;19963;-50
2024/04/16 14:14:42;;;;;;;;;;;;;;;;;;5364140;26;19941;-53
2024/04/16 14:17:08;;;;;;;;;;;;;;;;;;5378489;26;20267;-52
2024/04/16 14:19:34;;;;;;;;;;;;;;;;;;5368175;26;19930;-51
2024/04/16 14:22:00;;;;;;;;;;;;;;;;;;5357744;26;20380;-48
2024/04/16 14:24:30;;;;;;;;;;;;;;;;;;5343477;26;19984;-49
2024/04/16 14:26:56;;;;;;;;;;;;;;;;;;5351581;26;19953;-53
2024/04/16 14:29:23;;;;;;;;;;;;;;;;;;5342324;26;19929;-49
2024/04/16 14:31:49;;;;;;;;;;;;;;;;;;5348037;26;19937;-51
2024/04/16 14:34:16;;;;;;;;;;;;;;;;;;5370233;26;19930;-51
2024/04/16 14:36:42;;;;;;;;;;;;;;;;;;5341648;26;19934;-50
2024/04/16 14:39:08;;;;;;;;;;;;;;;;;;5343150;26;19976;-52
2024/04/16 14:41:34;;;;;;;;;;;;;;;;;;5343838;26;19938;-51
2024/04/16 14:44:00;;;;;;;;;;;;;;;;;;5312676;26;19930;-52
2024/04/16 14:46:26;;;;;;;;;;;;;;;;;;5343479;26;19930;-52
2024/04/16 14:48:52;;;;;;;;;;;;;;;;;;5343065;26;20327;-53
2024/04/16 14:51:18;;;;;;;;;;;;;;;;;;5356123;26;19934;-49
2024/04/16 14:53:47;;;;;;;;;;;;;;;;;;5343646;26;19938;-48
2024/04/16 14:56:13;;;;;;;;;;;;;;;;;;5343560;26;19941;-50
2024/04/16 14:58:39;;;;;;;;;;;;;;;;;;5342570;26;19930;-53
2024/04/16 15:01:05;;;;;;;;;;;;;;;;;;5357809;26;19942;-49
2024/04/16 15:03:31;;;;;;;;;;;;;;;;;;5380079;26;19965;-51
2024/04/16 15:05:57;;;;;;;;;;;;;;;;;;5363557;26;19940;-53
2024/04/16 15:08:23;;;;;;;;;;;;;;;;;;5410813;26;19936;-52
2024/04/16 15:10:50;;;;;;;;;;;;;;;;;;5364411;26;20271;-50
2024/04/16 15:13:16;;;;;;;;;;;;;;;;;;5371667;26;19936;-53
2024/04/16 15:15:42;;;;;;;;;;;;;;;;;;5383541;26;20353;-51
2024/04/16 15:18:08;;;;;;;;;;;;;;;;;;5366509;26;20013;-52
2024/04/16 15:20:34;;;;;;;;;;;;;;;;;;5348133;26;19933;-49
2024/04/16 15:22:59;;;;;;;;;;;;;;;;;;5363240;26;20000;-52
2024/04/16 15:25:25;;;;;;;;;;;;;;;;;;5326923;26;19929;-50
2024/04/16 15:27:51;;;;;;;;;;;;;;;;;;5372121;26;20003;-48
2024/04/16 15:30:17;;;;;;;;;;;;;;;;;;5370171;26;19930;-51
2024/04/16 15:32:43;;;;;;;;;;;;;;;;;;5380154;26;19933;-53
2024/04/16 15:35:09;;;;;;;;;;;;;;;;;;5377111;26;19930;-53
2024/04/16 15:37:35;;;;;;;;;;;;;;;;;;5372399;26;19961;-53
2024/04/16 15:40:01;;;;;;;;;;;;;;;;;;5377995;26;20003;-53
2024/04/16 15:42:27;;;;;;;;;;;;;;;;;;5377416;26;19999;-53
2024/04/16 15:44:53;;;;;;;;;;;;;;;;;;5377349;26;19936;-52
2024/04/16 15:47:19;;;;;;;;;;;;;;;;;;5358980;26;19976;-53
2024/04/16 15:49:44;;;;;;;;;;;;;;;;;;5378400;26;20351;-53
2024/04/16 15:52:10;;;;;;;;;;;;;;;;;;5364101;26;20006;-50
2024/04/16 15:54:36;;;;;;;;;;;;;;;;;;5380952;26;19936;-50
2024/04/16 15:57:02;;;;;;;;;;;;;;;;;;5376788;26;19940;-50
2024/04/16 15:59:29;;;;;;;;;;;;;;;;;;5377034;26;19941;-50
2024/04/16 16:01:55;;;;;;;;;;;;;;;;;;5376924;26;19999;-51
2024/04/16 16:04:21;;;;;;;;;;;;;;;;;;5342406;26;20317;-49
2024/04/16 16:06:47;;;;;;;;;;;;;;;;;;5357663;26;19975;-52
2024/04/16 16:09:12;;;;;;;;;;;;;;;;;;5377509;26;19958;-53
2024/04/16 16:11:38;;;;;;;;;;;;;;;;;;5374685;26;19930;-50
2024/04/16 16:14:04;;;;;;;;;;;;;;;;;;5360913;26;20415;-52
2024/04/16 16:16:30;;;;;;;;;;;;;;;;;;5344866;26;19930;-52
2024/04/16 16:18:56;;;;;;;;;;;;;;;;;;5377831;26;19937;-49
2024/04/16 16:21:22;;;;;;;;;;;;;;;;;;5349323;26;19937;-49
2024/04/16 16:23:48;;;;;;;;;;;;;;;;;;5374857;26;19941;-53
2024/04/16 16:26:14;;;;;;;;;;;;;;;;;;5375102;26;19933;-54
2024/04/16 16:28:39;;;;;;;;;;;;;;;;;;5349037;26;20293;-52
2024/04/16 16:31:05;;;;;;;;;;;;;;;;;;5355466;26;19930;-52
2024/04/16 16:33:31;;;;;;;;;;;;;;;;;;5368132;26;20332;-52
2024/04/16 16:35:57;;;;;;;;;;;;;;;;;;5364384;26;19930;-51
2024/04/16 16:38:23;;;;;;;;;;;;;;;;;;5357682;26;19937;-54
2024/04/16 16:40:49;;;;;;;;;;;;;;;;;;5347389;26;19937;-52
2024/04/16 16:43:15;;;;;;;;;;;;;;;;;;5379126;26;19936;-53
2024/04/16 16:45:41;;;;;;;;;;;;;;;;;;5369775;26;20436;-50
2024/04/16 16:48:08;;;;;;;;;;;;;;;;;;5343700;26;19937;-49
2024/04/16 16:50:34;;;;;;;;;;;;;;;;;;5372975;26;20244;-51
2024/04/16 16:53:00;;;;;;;;;;;;;;;;;;5379863;26;20004;-54
2024/04/16 16:55:26;;;;;;;;;;;;;;;;;;5380209;26;19933;-54
2024/04/16 16:57:52;;;;;;;;;;;;;;;;;;5379951;26;20260;-52
2024/04/16 17:00:18;;;;;;;;;;;;;;;;;;5382317;26;19936;-53
2024/04/16 17:02:44;;;;;;;;;;;;;;;;;;5357441;26;19941;-53
2024/04/16 17:05:10;;;;;;;;;;;;;;;;;;5360125;26;19936;-53
2024/04/16 17:07:36;;;;;;;;;;;;;;;;;;5386530;26;20012;-52
2024/04/16 17:10:02;;;;;;;;;;;;;;;;;;5382114;26;19945;-52
2024/04/16 17:12:27;;;;;;;;;;;;;;;;;;5345999;26;20253;-50
2024/04/16 17:14:53;;;;;;;;;;;;;;;;;;5370813;26;19929;-51
2024/04/16 17:17:19;;;;;;;;;;;;;;;;;;5379833;26;20379;-51
2024/04/16 17:19:45;;;;;;;;;;;;;;;;;;5380099;26;19999;-51
2024/04/16 17:22:11;;;;;;;;;;;;;;;;;;5400364;26;19933;-52
2024/04/16 17:24:38;;;;;;;;;;;;;;;;;;5361751;26;19930;-48
2024/04/16 17:27:04;;;;;;;;;;;;;;;;;;5315077;26;19930;-50
2024/04/16 17:29:29;;;;;;;;;;;;;;;;;;5364395;26;19930;-51
2024/04/16 17:31:55;;;;;;;;;;;;;;;;;;5363702;26;20328;-50
2024/04/16 17:34:21;;;;;;;;;;;;;;;;;;5388831;26;19936;-53
2024/04/16 17:36:47;;;;;;;;;;;;;;;;;;5360223;26;20367;-52
2024/04/16 17:39:13;;;;;;;;;;;;;;;;;;5368305;26;19995;-52
2024/04/16 17:41:39;;;;;;;;;;;;;;;;;;5372671;26;20337;-52
2024/04/16 17:44:05;;;;;;;;;;;;;;;;;;5375672;26;19929;-51
2024/04/16 17:46:32;;;;;;;;;;;;;;;;;;5377641;26;19930;-48
2024/04/16 17:48:58;;;;;;;;;;;;;;;;;;5367939;26;20017;-51
2024/04/16 17:51:24;;;;;;;;;;;;;;;;;;5362617;26;19945;-53
2024/04/16 17:53:49;;;;;;;;;;;;;;;;;;5379149;26;19929;-48
2024/04/16 17:56:15;;;;;;;;;;;;;;;;;;5376655;26;20294;-50
2024/04/16 17:58:46;;;;;;;;;;;;;;;;;;5335135;26;19938;-53
2024/04/16 18:01:12;;;;;;;;;;;;;;;;;;5387569;26;19954;-50
2024/04/16 18:03:38;;;;;;;;;;;;;;;;;;5364201;26;20441;-52
2024/04/16 18:06:04;;;;;;;;;;;;;;;;;;5372414;26;19937;-50
2024/04/16 18:08:30;;;;;;;;;;;;;;;;;;5360929;26;19966;-53
2024/04/16 18:10:56;;;;;;;;;;;;;;;;;;5350086;26;19934;-53
2024/04/16 18:13:22;;;;;;;;;;;;;;;;;;5353752;26;20370;-53
2024/04/16 18:15:50;;;;;;;;;;;;;;;;;;5328274;26;19930;-51
2024/04/16 18:18:21;;;;;;;;;;;;;;;;;;5359933;26;20212;-50
2024/04/16 18:20:47;;;;;;;;;;;;;;;;;;5367354;26;20265;-51
2024/04/16 18:23:13;;;;;;;;;;;;;;;;;;5363625;26;19941;-49
2024/04/16 18:25:38;;;;;;;;;;;;;;;;;;5356498;26;19930;-51
2024/04/16 18:28:04;;;;;;;;;;;;;;;;;;5365189;26;20293;-52
2024/04/16 18:30:30;;;;;;;;;;;;;;;;;;5354614;26;19940;-51
2024/04/16 18:32:56;;;;;;;;;;;;;;;;;;5374955;26;20329;-52
2024/04/16 18:35:22;;;;;;;;;;;;;;;;;;5376074;26;19930;-49
2024/04/16 18:37:48;;;;;;;;;;;;;;;;;;5357375;26;20331;-53
2024/04/16 18:40:14;;;;;;;;;;;;;;;;;;5372296;26;19941;-49
2024/04/16 18:42:40;;;;;;;;;;;;;;;;;;5378491;26;20338;-48
2024/04/16 18:45:05;;;;;;;;;;;;;;;;;;5357141;26;19966;-50
2024/04/16 18:47:32;;;;;;;;;;;;;;;;;;5378409;26;19941;-50
2024/04/16 18:49:58;;;;;;;;;;;;;;;;;;5343397;26;20298;-52
2024/04/16 18:52:24;;;;;;;;;;;;;;;;;;5314655;26;20316;-51
2024/04/16 18:54:50;;;;;;;;;;;;;;;;;;5354126;26;19937;-52
2024/04/16 18:57:16;;;;;;;;;;;;;;;;;;5344238;26;20266;-51
2024/04/16 18:59:43;;;;;;;;;;;;;;;;;;5322289;26;19963;-50
2024/04/16 19:02:08;;;;;;;;;;;;;;;;;;5355022;26;20405;-49
2024/04/16 19:04:36;;;;;;;;;;;;;;;;;;5361687;26;19930;-53
2024/04/16 19:07:02;;;;;;;;;;;;;;;;;;5361267;26;19958;-52
2024/04/16 19:09:28;;;;;;;;;;;;;;;;;;5400235;26;19928;-51
2024/04/16 19:11:54;;;;;;;;;;;;;;;;;;5381915;26;20016;-53
2024/04/16 19:14:20;;;;;;;;;;;;;;;;;;5391048;26;19944;-49
2024/04/16 19:16:48;;;;;;;;;;;;;;;;;;5364979;26;19937;-51
2024/04/16 19:19:14;;;;;;;;;;;;;;;;;;5362899;26;19930;-48
2024/04/16 19:21:40;;;;;;;;;;;;;;;;;;5361884;26;19937;-51
2024/04/16 19:24:06;;;;;;;;;;;;;;;;;;5381107;26;19938;-51
2024/04/16 19:26:32;;;;;;;;;;;;;;;;;;5316573;26;19937;-50
2024/04/16 19:28:58;;;;;;;;;;;;;;;;;;5361051;26;19941;-48
2024/04/16 19:31:23;;;;;;;;;;;;;;;;;;5357436;26;19929;-48
2024/04/16 19:33:51;;;;;;;;;;;;;;;;;;5354628;26;19944;-51
2024/04/16 19:36:17;;;;;;;;;;;;;;;;;;5373957;26;19929;-49
2024/04/16 19:38:43;;;;;;;;;;;;;;;;;;5335390;26;19937;-52
2024/04/16 19:41:09;;;;;;;;;;;;;;;;;;5365071;26;19937;-53
2024/04/16 19:43:35;;;;;;;;;;;;;;;;;;5339903;26;19944;-51
2024/04/16 19:46:01;;;;;;;;;;;;;;;;;;5373572;26;19937;-50
2024/04/16 19:48:28;;;;;;;;;;;;;;;;;;5358217;26;19976;-50
2024/04/16 19:50:54;;;;;;;;;;;;;;;;;;5368864;26;19930;-52
2024/04/16 19:53:20;;;;;;;;;;;;;;;;;;5328120;26;19937;-51
2024/04/16 19:55:46;;;;;;;;;;;;;;;;;;5368050;26;20003;-47
2024/04/16 19:58:12;;;;;;;;;;;;;;;;;;5330761;26;19938;-52
2024/04/16 20:00:38;;;;;;;;;;;;;;;;;;5346966;26;20000;-52
2024/04/16 20:03:04;;;;;;;;;;;;;;;;;;5333546;26;22402;-52
2024/04/16 20:05:30;;;;;;;;;;;;;;;;;;5359155;26;19934;-51
2024/04/16 20:07:56;;;;;;;;;;;;;;;;;;5354174;26;19937;-48
2024/04/16 20:10:22;;;;;;;;;;;;;;;;;;5366280;26;19953;-52
2024/04/16 20:12:48;;;;;;;;;;;;;;;;;;5381520;26;20334;-47
2024/04/16 20:15:14;;;;;;;;;;;;;;;;;;5349740;26;19929;-48
2024/04/16 20:17:40;;;;;;;;;;;;;;;;;;5362127;26;19930;-50
2024/04/16 20:20:05;;;;;;;;;;;;;;;;;;5365554;26;19933;-52
2024/04/16 20:22:32;;;;;;;;;;;;;;;;;;5361213;26;19977;-52
2024/04/16 20:24:58;;;;;;;;;;;;;;;;;;5359090;26;19941;-53
2024/04/16 20:27:24;;;;;;;;;;;;;;;;;;5369595;26;20007;-53
2024/04/16 20:29:51;;;;;;;;;;;;;;;;;;5337789;26;19949;-50
2024/04/16 20:32:17;;;;;;;;;;;;;;;;;;5362478;26;20003;-51
2024/04/16 20:34:43;;;;;;;;;;;;;;;;;;5369238;26;19966;-52
2024/04/16 20:37:09;;;;;;;;;;;;;;;;;;5357243;26;20394;-51
2024/04/16 20:39:35;;;;;;;;;;;;;;;;;;5371278;26;19930;-51
2024/04/16 20:42:00;;;;;;;;;;;;;;;;;;5363921;26;20384;-52
2024/04/16 20:44:26;;;;;;;;;;;;;;;;;;5360427;26;19973;-52
2024/04/16 20:46:52;;;;;;;;;;;;;;;;;;5327519;26;19941;-49
2024/04/16 20:49:18;;;;;;;;;;;;;;;;;;5377849;26;19930;-51
2024/04/16 20:51:44;;;;;;;;;;;;;;;;;;5364359;26;20364;-53
2024/04/16 20:54:10;;;;;;;;;;;;;;;;;;5361276;26;19933;-50
2024/04/16 20:56:36;;;;;;;;;;;;;;;;;;5358373;26;20765;-49
2024/04/16 20:59:03;;;;;;;;;;;;;;;;;;5356633;26;19934;-53
2024/04/16 21:01:29;;;;;;;;;;;;;;;;;;5364693;26;20002;-49
2024/04/16 21:03:55;;;;;;;;;;;;;;;;;;5371965;26;19937;-49
2024/04/16 21:06:21;;;;;;;;;;;;;;;;;;5356718;26;20355;-51
2024/04/16 21:08:47;;;;;;;;;;;;;;;;;;5368665;26;20306;-51
2024/04/16 21:11:13;;;;;;;;;;;;;;;;;;5371488;26;19930;-52
2024/04/16 21:13:39;;;;;;;;;;;;;;;;;;5353952;26;20254;-50
2024/04/16 21:16:05;;;;;;;;;;;;;;;;;;5365020;26;19956;-52
2024/04/16 21:18:31;;;;;;;;;;;;;;;;;;5329186;26;20256;-50
2024/04/16 21:20:57;;;;;;;;;;;;;;;;;;5368153;26;19929;-52
2024/04/16 21:23:22;;;;;;;;;;;;;;;;;;5379622;26;19933;-53
2024/04/16 21:25:49;;;;;;;;;;;;;;;;;;5378528;26;20003;-52
2024/04/16 21:28:15;;;;;;;;;;;;;;;;;;5379936;26;19930;-50
2024/04/16 21:30:40;;;;;;;;;;;;;;;;;;5358828;26;19948;-51
2024/04/16 21:33:06;;;;;;;;;;;;;;;;;;5414767;26;20016;-52
2024/04/16 21:35:32;;;;;;;;;;;;;;;;;;5397993;26;20337;-51
2024/04/16 21:37:58;;;;;;;;;;;;;;;;;;5381415;26;19929;-53
2024/04/16 21:40:24;;;;;;;;;;;;;;;;;;5379494;26;20363;-52
2024/04/16 21:42:50;;;;;;;;;;;;;;;;;;5348108;26;19929;-52
2024/04/16 21:45:16;;;;;;;;;;;;;;;;;;5379543;26;19940;-51
2024/04/16 21:47:42;;;;;;;;;;;;;;;;;;5381324;26;19941;-49
2024/04/16 21:50:08;;;;;;;;;;;;;;;;;;5378868;26;19929;-53
2024/04/16 21:52:34;;;;;;;;;;;;;;;;;;5379218;26;19930;-51
2024/04/16 21:54:59;;;;;;;;;;;;;;;;;;5394590;26;19937;-53